createdAt,value
2022-09-21T00:00:31.213Z,14.07
2022-09-21T00:02:59.227Z,14.14
2022-09-21T00:05:27.051Z,13.53
2022-09-21T00:07:56.146Z,13.90
2022-09-21T00:10:23.865Z,14.05
2022-09-21T00:12:51.595Z,14.09
2022-09-21T00:15:19.476Z,14.05
2022-09-21T00:17:48.641Z,14.20
2022-09-21T00:20:16.518Z,13.82
2022-09-21T00:22:44.230Z,13.56
2022-09-21T00:25:13.378Z,13.99
2022-09-21T00:27:41.666Z,14.01
2022-09-21T00:30:10.023Z,13.83
2022-09-21T00:32:39.321Z,13.96
2022-09-21T00:35:07.901Z,13.94
2022-09-21T00:37:36.029Z,13.89
2022-09-21T00:40:04.769Z,13.87
2022-09-21T00:42:35.524Z,13.78
2022-09-21T00:45:03.463Z,13.73
2022-09-21T00:47:35.764Z,13.69
2022-09-21T00:50:08.783Z,13.78
2022-09-21T00:52:42.909Z,13.36
2022-09-21T00:55:15.658Z,13.59
2022-09-21T00:57:47.610Z,13.45
2022-09-21T01:00:15.635Z,13.68
2022-09-21T01:02:43.750Z,13.64
2022-09-21T01:05:11.883Z,13.45
2022-09-21T01:07:43.488Z,13.06
2022-09-21T01:10:14.762Z,13.22
2022-09-21T01:12:59.397Z,13.14
2022-09-21T01:15:37.042Z,13.12
2022-09-21T01:18:13.767Z,13.37
2022-09-21T01:21:15.525Z,13.39
2022-09-21T01:23:54.641Z,13.47
2022-09-21T01:26:32.562Z,13.28
2022-09-21T01:29:14.785Z,13.29
2022-09-21T01:31:50.392Z,13.30
2022-09-21T01:34:25.148Z,13.28
2022-09-21T01:36:56.183Z,13.33
2022-09-21T01:39:25.974Z,13.42
2022-09-21T01:41:55.125Z,13.39
2022-09-21T01:44:27.666Z,13.18
2022-09-21T01:46:57.031Z,13.09
2022-09-21T01:49:31.059Z,12.89
2022-09-21T01:52:03.535Z,13.01
2022-09-21T01:54:39.239Z,12.97
2022-09-21T01:57:12.676Z,12.98
2022-09-21T01:59:50.244Z,13.12
2022-09-21T02:02:20.826Z,12.99
2022-09-21T02:04:48.877Z,13.02
2022-09-21T02:07:18.053Z,13.20
2022-09-21T02:09:47.542Z,13.04
2022-09-21T02:12:18.971Z,13.03
2022-09-21T02:14:49.261Z,13.02
2022-09-21T02:17:29.083Z,12.99
2022-09-21T02:20:05.315Z,12.87
2022-09-21T02:22:38.024Z,12.77
2022-09-21T02:25:09.720Z,12.76
2022-09-21T02:27:45.799Z,13.06
2022-09-21T02:30:18.338Z,12.96
2022-09-21T02:32:51.566Z,12.86
2022-09-21T02:35:31.635Z,13.01
2022-09-21T02:38:08.066Z,12.87
2022-09-21T02:40:40.536Z,12.90
2022-09-21T02:43:13.651Z,12.86
2022-09-21T02:45:47.610Z,12.77
2022-09-21T02:48:19.557Z,12.99
2022-09-21T02:50:51.905Z,12.92
2022-09-21T02:53:25.004Z,12.46
2022-09-21T02:55:56.473Z,12.81
2022-09-21T02:58:27.793Z,12.74
2022-09-21T03:01:00.287Z,12.90
2022-09-21T03:03:28.026Z,12.76
2022-09-21T03:05:56.570Z,12.79
2022-09-21T03:08:24.331Z,12.71
2022-09-21T03:10:52.444Z,12.80
2022-09-21T03:13:20.498Z,12.72
2022-09-21T03:15:49.014Z,12.78
2022-09-21T03:18:18.119Z,12.51
2022-09-21T03:20:47.025Z,12.57
2022-09-21T03:23:14.884Z,12.60
2022-09-21T03:25:45.311Z,12.68
2022-09-21T03:28:13.457Z,12.60
2022-09-21T03:30:41.301Z,12.84
2022-09-21T03:33:10.161Z,12.48
2022-09-21T03:35:39.427Z,12.30
2022-09-21T03:38:07.172Z,12.27
2022-09-21T03:40:35.243Z,12.21
2022-09-21T03:43:03.060Z,12.17
2022-09-21T03:45:30.834Z,12.05
2022-09-21T03:48:00.149Z,12.13
2022-09-21T03:50:29.341Z,12.15
2022-09-21T03:52:58.931Z,11.85
2022-09-21T03:55:27.380Z,11.93
2022-09-21T03:57:55.200Z,12.00
2022-09-21T04:00:23.292Z,12.08
2022-09-21T04:02:51.075Z,12.04
2022-09-21T04:05:19.222Z,11.87
2022-09-21T04:07:46.961Z,11.74
2022-09-21T04:10:19.562Z,11.82
2022-09-21T04:12:48.164Z,11.75
2022-09-21T04:15:19.598Z,11.98
2022-09-21T04:17:48.389Z,11.87
2022-09-21T04:20:16.107Z,11.94
2022-09-21T04:22:44.867Z,12.00
2022-09-21T04:25:13.187Z,12.15
2022-09-21T04:27:43.420Z,12.09
2022-09-21T04:30:13.374Z,11.89
2022-09-21T04:32:41.338Z,11.80
2022-09-21T04:35:10.507Z,11.77
2022-09-21T04:37:38.342Z,11.88
2022-09-21T04:40:07.546Z,12.07
2022-09-21T04:42:35.515Z,11.86
2022-09-21T04:45:05.056Z,11.86
2022-09-21T04:47:32.813Z,11.62
2022-09-21T04:50:00.491Z,11.65
2022-09-21T04:52:28.244Z,11.69
2022-09-21T04:54:56.447Z,11.41
2022-09-21T04:57:24.156Z,11.25
2022-09-21T04:59:51.872Z,11.29
2022-09-21T05:02:21.000Z,11.55
2022-09-21T05:04:51.115Z,11.61
2022-09-21T05:07:19.599Z,11.77
2022-09-21T05:10:04.700Z,11.67
2022-09-21T05:12:32.911Z,11.83
2022-09-21T05:15:00.706Z,11.72
2022-09-21T05:17:30.268Z,11.84
2022-09-21T05:19:57.976Z,11.97
2022-09-21T05:22:25.714Z,11.87
2022-09-21T05:24:53.425Z,11.90
2022-09-21T05:27:21.129Z,11.98
2022-09-21T05:29:49.398Z,12.17
2022-09-21T05:32:25.613Z,12.18
2022-09-21T05:35:12.369Z,12.20
2022-09-21T05:37:49.088Z,12.18
2022-09-21T05:40:17.607Z,12.17
2022-09-21T05:42:46.186Z,11.93
2022-09-21T05:45:16.802Z,12.03
2022-09-21T05:47:57.036Z,12.33
2022-09-21T05:50:39.400Z,12.43
2022-09-21T05:53:29.875Z,12.39
2022-09-21T05:55:59.167Z,12.57
2022-09-21T05:58:34.499Z,12.24
2022-09-21T06:01:16.452Z,12.65
2022-09-21T06:03:44.682Z,12.62
2022-09-21T06:06:13.735Z,12.79
2022-09-21T06:08:41.490Z,13.00
2022-09-21T06:11:09.491Z,13.08
2022-09-21T06:13:37.476Z,13.15
2022-09-21T06:16:05.885Z,13.21
2022-09-21T06:18:38.520Z,13.21
2022-09-21T06:21:07.135Z,13.40
2022-09-21T06:23:36.872Z,13.71
2022-09-21T06:26:04.853Z,13.58
2022-09-21T06:28:32.740Z,13.73
2022-09-21T06:31:00.563Z,14.06
2022-09-21T06:33:28.293Z,13.98
2022-09-21T06:35:57.144Z,13.76
2022-09-21T06:38:25.728Z,14.28
2022-09-21T06:40:55.256Z,14.68
2022-09-21T06:43:23.242Z,14.54
2022-09-21T06:45:55.341Z,14.38
2022-09-21T06:48:23.714Z,14.60
2022-09-21T06:50:51.544Z,14.59
2022-09-21T06:53:19.604Z,14.79
2022-09-21T06:55:47.289Z,15.08
2022-09-21T06:58:16.408Z,15.29
2022-09-21T07:00:44.177Z,15.95
2022-09-21T07:03:12.769Z,16.20
2022-09-21T07:05:40.951Z,16.32
2022-09-21T07:10:04.996Z,16.16
2022-09-21T07:10:59.149Z,16.63
2022-09-21T07:13:28.588Z,17.27
2022-09-21T07:15:56.724Z,17.06
2022-09-21T07:18:24.462Z,17.12
2022-09-21T07:20:52.210Z,17.14
2022-09-21T07:23:22.314Z,16.95
2022-09-21T07:25:52.501Z,17.33
2022-09-21T07:28:20.809Z,17.13
2022-09-21T07:30:49.903Z,16.46
2022-09-21T07:33:17.691Z,16.24
2022-09-21T07:35:52.196Z,16.11
2022-09-21T07:38:20.091Z,16.26
2022-09-21T07:40:47.841Z,16.24
2022-09-21T07:43:15.999Z,16.58
2022-09-21T07:45:43.789Z,16.85
2022-09-21T07:48:13.304Z,16.92
2022-09-21T07:50:42.077Z,17.30
2022-09-21T07:53:09.777Z,17.76
2022-09-21T07:55:37.454Z,17.29
2022-09-21T07:58:22.798Z,16.68
2022-09-21T08:00:50.535Z,17.53
2022-09-21T08:03:19.683Z,17.76
2022-09-21T08:05:47.386Z,17.88
2022-09-21T08:08:16.875Z,17.48
2022-09-21T08:10:44.604Z,17.15
2022-09-21T08:13:12.340Z,16.70
2022-09-21T08:15:51.631Z,17.08
2022-09-21T08:18:20.698Z,17.12
2022-09-21T08:20:55.362Z,18.04
2022-09-21T08:23:23.139Z,17.22
2022-09-21T08:25:51.173Z,17.25
2022-09-21T08:28:19.464Z,18.01
2022-09-21T08:30:47.193Z,18.59
2022-09-21T08:33:14.859Z,18.62
2022-09-21T08:35:43.945Z,18.57
2022-09-21T08:38:11.658Z,17.55
2022-09-21T08:40:41.832Z,17.91
2022-09-21T08:43:13.320Z,18.29
2022-09-21T08:45:43.318Z,17.70
2022-09-21T08:48:16.334Z,19.81
2022-09-21T08:50:50.588Z,21.03
2022-09-21T08:53:22.954Z,21.11
2022-09-21T08:55:50.802Z,20.64
2022-09-21T08:58:24.329Z,19.06
2022-09-21T09:01:07.879Z,19.91
2022-09-21T09:04:11.714Z,18.89
2022-09-21T09:06:51.875Z,18.67
2022-09-21T09:09:32.937Z,18.51
2022-09-21T09:12:19.879Z,18.21
2022-09-21T09:15:08.676Z,19.48
2022-09-21T09:17:50.540Z,19.10
2022-09-21T09:20:22.018Z,17.79
2022-09-21T09:23:03.595Z,18.81
2022-09-21T09:25:37.678Z,20.65
2022-09-21T09:28:22.026Z,20.30
2022-09-21T09:30:58.106Z,21.71
2022-09-21T09:33:29.079Z,19.97
2022-09-21T09:36:03.053Z,21.21
2022-09-21T09:38:37.385Z,20.39
2022-09-21T09:41:38.048Z,20.74
2022-09-21T09:44:22.279Z,20.16
2022-09-21T09:47:01.274Z,19.32
2022-09-21T09:49:40.079Z,20.87
2022-09-21T09:52:12.508Z,20.45
2022-09-21T09:54:41.821Z,20.28
2022-09-21T09:57:10.889Z,20.89
2022-09-21T09:59:44.368Z,20.93
2022-09-21T10:02:22.142Z,21.98
2022-09-21T10:05:03.641Z,21.89
2022-09-21T10:07:39.375Z,21.77
2022-09-21T10:10:31.145Z,20.87
2022-09-21T10:13:06.900Z,20.96
2022-09-21T10:15:34.840Z,21.50
2022-09-21T10:18:07.901Z,20.84
2022-09-21T10:20:35.637Z,20.90
2022-09-21T10:23:05.302Z,21.54
2022-09-21T10:25:39.436Z,20.00
2022-09-21T10:28:07.901Z,22.57
2022-09-21T10:30:38.642Z,22.87
2022-09-21T10:33:20.500Z,23.28
2022-09-21T10:35:53.235Z,23.58
2022-09-21T10:38:27.467Z,23.74
2022-09-21T10:40:56.666Z,23.10
2022-09-21T10:43:28.234Z,23.74
2022-09-21T10:45:57.978Z,22.99
2022-09-21T10:48:28.367Z,22.84
2022-09-21T10:50:57.972Z,24.52
2022-09-21T10:53:29.366Z,23.42
2022-09-21T10:56:19.389Z,23.74
2022-09-21T10:59:13.581Z,24.08
2022-09-21T11:01:46.750Z,23.81
2022-09-21T11:04:19.623Z,23.87
2022-09-21T11:06:52.660Z,23.54
2022-09-21T11:09:25.391Z,22.56
2022-09-21T11:12:00.459Z,20.89
2022-09-21T11:14:42.301Z,21.48
2022-09-21T11:17:25.060Z,21.85
2022-09-21T11:19:58.767Z,21.15
2022-09-21T11:22:36.589Z,20.99
2022-09-21T11:25:21.139Z,21.79
2022-09-21T11:27:56.203Z,23.14
2022-09-21T11:30:24.477Z,23.93
2022-09-21T11:33:11.339Z,22.30
2022-09-21T11:35:49.240Z,21.45
2022-09-21T11:38:33.631Z,21.92
2022-09-21T11:41:35.730Z,22.12
2022-09-21T11:44:21.903Z,21.81
2022-09-21T11:47:00.343Z,22.93
2022-09-21T11:49:44.846Z,23.51
2022-09-21T11:52:27.359Z,24.45
2022-09-21T11:55:07.642Z,23.89
2022-09-21T11:57:42.715Z,24.66
2022-09-21T12:00:16.687Z,24.09
2022-09-21T12:03:23.674Z,24.66
2022-09-21T12:06:07.452Z,22.27
2022-09-21T12:09:04.320Z,23.97
2022-09-21T12:11:39.203Z,23.99
2022-09-21T12:14:19.226Z,23.47
2022-09-21T12:16:57.838Z,22.77
2022-09-21T12:19:34.258Z,23.10
2022-09-21T12:22:09.633Z,23.72
2022-09-21T12:24:43.611Z,23.97
2022-09-21T12:27:26.503Z,23.66
2022-09-21T12:29:59.216Z,24.35
2022-09-21T12:32:41.043Z,23.99
2022-09-21T12:35:16.312Z,22.97
2022-09-21T12:37:49.088Z,22.05
2022-09-21T12:40:21.364Z,22.79
2022-09-21T12:42:53.917Z,21.59
2022-09-21T12:45:26.680Z,21.97
2022-09-21T12:48:00.539Z,22.81
2022-09-21T12:50:35.895Z,22.37
2022-09-21T12:53:05.043Z,23.91
2022-09-21T12:55:45.508Z,23.84
2022-09-21T12:58:24.720Z,22.74
2022-09-21T13:01:06.224Z,23.82
2022-09-21T13:03:43.812Z,23.14
2022-09-21T13:06:46.296Z,23.54
2022-09-21T13:09:18.086Z,23.83
2022-09-21T13:11:56.616Z,24.35
2022-09-21T13:14:26.641Z,24.27
2022-09-21T13:16:57.627Z,23.71
2022-09-21T13:19:30.098Z,23.76
2022-09-21T13:22:23.008Z,23.08
2022-09-21T13:25:02.988Z,23.23
2022-09-21T13:28:09.179Z,22.75
2022-09-21T13:30:39.655Z,23.27
2022-09-21T13:33:32.873Z,24.87
2022-09-21T13:36:27.379Z,23.72
2022-09-21T13:39:05.799Z,23.34
2022-09-21T13:41:59.072Z,23.99
2022-09-21T13:44:41.504Z,24.26
2022-09-21T13:47:11.403Z,24.19
2022-09-21T13:49:46.383Z,23.71
2022-09-21T13:52:27.771Z,23.87
2022-09-21T13:54:58.750Z,24.16
2022-09-21T13:57:33.178Z,23.94
2022-09-21T14:00:19.934Z,24.54
2022-09-21T14:02:57.268Z,24.50
2022-09-21T14:05:32.485Z,24.42
2022-09-21T14:08:04.357Z,24.43
2022-09-21T14:10:36.090Z,23.88
2022-09-21T14:13:09.565Z,23.82
2022-09-21T14:15:41.264Z,23.91
2022-09-21T14:18:18.913Z,23.99
2022-09-21T14:21:25.386Z,23.10
2022-09-21T14:24:22.955Z,23.67
2022-09-21T14:26:56.852Z,23.88
2022-09-21T14:29:33.368Z,24.53
2022-09-21T14:32:03.808Z,24.33
2022-09-21T14:34:37.002Z,22.72
2022-09-21T14:37:16.930Z,22.87
2022-09-21T14:39:47.700Z,22.06
2022-09-21T14:42:19.407Z,23.12
2022-09-21T14:44:49.945Z,23.76
2022-09-21T14:47:32.813Z,23.33
2022-09-21T14:50:22.819Z,23.31
2022-09-21T14:53:17.678Z,23.25
2022-09-21T14:56:03.519Z,23.28
2022-09-21T14:58:44.908Z,23.81
2022-09-21T15:01:37.801Z,23.76
2022-09-21T15:04:26.297Z,24.04
2022-09-21T15:07:21.204Z,23.78
2022-09-21T15:10:28.742Z,24.12
2022-09-21T15:13:01.512Z,23.86
2022-09-21T15:15:41.447Z,23.03
2022-09-21T15:18:20.436Z,22.86
2022-09-21T15:21:01.236Z,22.99
2022-09-21T15:23:30.632Z,23.05
2022-09-21T15:26:02.690Z,22.92
2022-09-21T15:29:05.031Z,22.20
2022-09-21T15:31:33.623Z,22.37
2022-09-21T15:34:02.939Z,22.71
2022-09-21T15:36:31.331Z,22.64
2022-09-21T15:39:00.112Z,22.55
2022-09-21T15:41:40.872Z,21.07
2022-09-21T15:44:16.272Z,22.05
2022-09-21T15:46:46.800Z,22.30
2022-09-21T15:49:21.207Z,22.29
2022-09-21T15:51:53.156Z,22.24
2022-09-21T15:54:32.250Z,21.96
2022-09-21T15:57:03.619Z,21.90
2022-09-21T15:59:36.703Z,22.22
2022-09-21T16:02:13.241Z,22.34
2022-09-21T16:04:49.461Z,22.15
2022-09-21T16:07:29.330Z,21.04
2022-09-21T16:09:57.139Z,21.55
2022-09-21T16:12:40.250Z,21.42
2022-09-21T16:15:17.872Z,21.68
2022-09-21T16:18:01.869Z,21.11
2022-09-21T16:20:42.786Z,21.34
2022-09-21T16:23:16.806Z,20.60
2022-09-21T16:25:45.050Z,20.78
2022-09-21T16:28:44.122Z,20.62
2022-09-21T16:31:29.970Z,20.07
2022-09-21T16:34:21.909Z,20.02
2022-09-21T16:36:51.840Z,20.33
2022-09-21T16:39:21.801Z,20.19
2022-09-21T16:41:53.325Z,19.99
2022-09-21T16:44:25.697Z,19.42
2022-09-21T16:47:00.405Z,19.35
2022-09-21T16:49:32.714Z,19.13
2022-09-21T16:52:01.480Z,19.21
2022-09-21T16:54:29.764Z,18.96
2022-09-21T16:57:00.200Z,18.84
2022-09-21T16:59:28.824Z,18.79
2022-09-21T17:01:59.448Z,18.55
2022-09-21T17:04:29.760Z,18.52
2022-09-21T17:06:58.360Z,18.14
2022-09-21T17:09:29.927Z,18.09
2022-09-21T17:12:01.400Z,18.01
2022-09-21T17:14:35.318Z,17.80
2022-09-21T17:17:08.398Z,17.67
2022-09-21T17:19:36.807Z,17.44
2022-09-21T17:22:06.775Z,17.16
2022-09-21T17:24:49.737Z,16.93
2022-09-21T17:27:19.945Z,16.77
2022-09-21T17:29:49.286Z,16.97
2022-09-21T17:32:20.795Z,16.88
2022-09-21T17:34:50.104Z,16.84
2022-09-21T17:37:17.930Z,16.87
2022-09-21T17:39:46.274Z,16.75
2022-09-21T17:42:19.047Z,16.60
2022-09-21T17:45:03.117Z,16.45
2022-09-21T17:47:33.993Z,16.36
2022-09-21T17:50:16.631Z,16.49
2022-09-21T17:53:02.866Z,16.16
2022-09-21T17:55:31.575Z,16.24
2022-09-21T17:58:09.903Z,16.64
2022-09-21T18:00:44.999Z,16.97
2022-09-21T18:03:22.824Z,16.49
2022-09-21T18:05:52.765Z,16.11
2022-09-21T18:08:20.886Z,16.50
2022-09-21T18:10:57.144Z,16.01
2022-09-21T18:13:33.169Z,16.03
2022-09-21T18:16:19.734Z,16.06
2022-09-21T18:18:58.935Z,15.66
2022-09-21T18:21:27.611Z,15.57
2022-09-21T18:24:20.860Z,15.43
2022-09-21T18:26:50.756Z,15.69
2022-09-21T18:29:39.564Z,15.28
2022-09-21T18:32:32.214Z,15.64
2022-09-21T18:35:38.909Z,15.45
2022-09-21T18:38:18.290Z,15.51
2022-09-21T18:41:00.957Z,15.80
2022-09-21T18:43:39.321Z,15.62
2022-09-21T18:46:15.760Z,15.42
2022-09-21T18:48:52.975Z,15.29
2022-09-21T18:51:29.520Z,14.97
2022-09-21T18:53:58.348Z,15.20
2022-09-21T18:56:27.836Z,15.04
2022-09-21T18:58:57.080Z,14.89
2022-09-21T19:01:26.848Z,14.73
2022-09-21T19:03:55.246Z,15.17
2022-09-21T19:06:46.392Z,15.13
2022-09-21T19:09:36.407Z,14.84
2022-09-21T19:12:16.927Z,14.51
2022-09-21T19:14:55.570Z,14.35
2022-09-21T19:17:38.619Z,14.78
2022-09-21T19:20:27.937Z,14.42
2022-09-21T19:23:07.267Z,14.39
2022-09-21T19:25:45.936Z,14.33
2022-09-21T19:28:35.068Z,14.19
2022-09-21T19:31:14.058Z,14.24
2022-09-21T19:33:50.813Z,14.56
2022-09-21T19:36:21.667Z,14.56
2022-09-21T19:38:51.435Z,15.01
2022-09-21T19:41:35.075Z,14.95
2022-09-21T19:44:15.219Z,14.99
2022-09-21T19:47:01.442Z,14.84
2022-09-21T19:49:39.535Z,14.71
2022-09-21T19:52:07.589Z,14.15
2022-09-21T19:54:54.468Z,14.11
2022-09-21T19:57:40.855Z,14.04
2022-09-21T20:00:13.189Z,13.92
2022-09-21T20:02:51.850Z,14.22
2022-09-21T20:05:24.974Z,14.27
2022-09-21T20:07:59.241Z,14.30
2022-09-21T20:10:42.131Z,14.16
2022-09-21T20:13:21.809Z,15.35
2022-09-21T20:15:53.052Z,14.88
2022-09-21T20:18:27.197Z,14.10
2022-09-21T20:20:55.304Z,14.62
2022-09-21T20:23:23.443Z,15.14
2022-09-21T20:25:56.665Z,14.99
2022-09-21T20:28:25.088Z,14.76
2022-09-21T20:30:54.506Z,14.29
2022-09-21T20:33:26.302Z,14.36
2022-09-21T20:35:55.424Z,13.82
2022-09-21T20:38:27.721Z,14.27
2022-09-21T20:40:58.622Z,13.98
2022-09-21T20:43:31.802Z,13.65
2022-09-21T20:46:00.481Z,13.62
2022-09-21T20:48:28.301Z,13.74
2022-09-21T20:50:57.108Z,13.69
2022-09-21T20:53:24.879Z,13.39
2022-09-21T20:55:58.507Z,13.38
2022-09-21T20:58:26.302Z,13.78
2022-09-21T21:00:58.077Z,13.68
2022-09-21T21:03:26.752Z,13.53
2022-09-21T21:05:54.556Z,13.48
2022-09-21T21:08:22.269Z,13.46
2022-09-21T21:10:49.994Z,13.23
2022-09-21T21:13:19.053Z,13.27
2022-09-21T21:15:47.143Z,13.31
2022-09-21T21:18:14.880Z,13.49
2022-09-21T21:20:42.573Z,13.69
2022-09-21T21:23:10.332Z,13.79
2022-09-21T21:25:38.030Z,13.66
2022-09-21T21:28:05.764Z,14.20
2022-09-21T21:30:34.859Z,13.68
2022-09-21T21:33:02.609Z,13.87
2022-09-21T21:35:31.322Z,13.67
2022-09-21T21:37:59.595Z,13.53
2022-09-21T21:40:27.325Z,13.36
2022-09-21T21:42:56.677Z,13.42
2022-09-21T21:45:24.381Z,13.52
2022-09-21T21:47:55.336Z,13.21
2022-09-21T21:50:23.035Z,13.36
2022-09-21T21:52:50.751Z,13.10
2022-09-21T21:55:18.463Z,13.35
2022-09-21T21:57:46.161Z,13.06
2022-09-21T22:00:16.762Z,12.88
2022-09-21T22:02:44.457Z,13.03
2022-09-21T22:05:13.510Z,12.96
2022-09-21T22:07:41.566Z,13.06
2022-09-21T22:10:10.393Z,12.74
2022-09-21T22:12:38.146Z,12.91
2022-09-21T22:15:06.660Z,13.06
2022-09-21T22:17:34.370Z,13.09
2022-09-21T22:20:02.325Z,12.86
2022-09-21T22:22:31.385Z,12.56
2022-09-21T22:24:59.114Z,12.65
2022-09-21T22:27:26.805Z,12.80
2022-09-21T22:29:54.709Z,12.72
2022-09-21T22:32:22.613Z,13.02
2022-09-21T22:34:51.052Z,12.91
2022-09-21T22:37:19.171Z,12.78
2022-09-21T22:39:48.319Z,12.82
2022-09-21T22:42:16.198Z,13.13
2022-09-21T22:44:43.902Z,13.30
2022-09-21T22:47:11.655Z,12.72
2022-09-21T22:49:39.339Z,12.11
2022-09-21T22:52:07.535Z,11.77
2022-09-21T22:54:35.239Z,11.93
2022-09-21T22:57:04.546Z,11.58
2022-09-21T22:59:32.287Z,11.50
2022-09-21T23:02:00.018Z,11.74
2022-09-21T23:04:28.153Z,11.97
2022-09-21T23:06:55.924Z,11.58
2022-09-21T23:09:23.611Z,11.91
2022-09-21T23:11:53.249Z,11.58
2022-09-21T23:14:23.265Z,11.89
2022-09-21T23:16:51.245Z,12.58
2022-09-21T23:19:19.007Z,12.40
2022-09-21T23:21:50.376Z,12.32
2022-09-21T23:24:18.729Z,12.55
2022-09-21T23:26:47.065Z,12.86
2022-09-21T23:29:16.214Z,12.33
2022-09-21T23:31:46.520Z,12.59
2022-09-21T23:34:16.035Z,12.65
2022-09-21T23:36:45.105Z,12.78
2022-09-21T23:39:14.309Z,12.62
2022-09-21T23:41:42.516Z,12.48
2022-09-21T23:44:10.462Z,12.38
2022-09-21T23:46:39.595Z,12.68
2022-09-21T23:49:09.193Z,12.66
2022-09-21T23:51:37.033Z,12.54
2022-09-21T23:54:05.209Z,12.50
2022-09-21T23:56:33.943Z,12.44
2022-09-21T23:59:02.169Z,12.71
